createdAt,value
2023-05-05T00:02:10.029Z,6.00
2023-05-05T00:04:37.057Z,5.72
2023-05-05T00:07:04.078Z,6.05
2023-05-05T00:09:31.073Z,5.97
2023-05-05T00:11:58.145Z,6.15
2023-05-05T00:14:25.195Z,5.93
2023-05-05T00:16:52.461Z,6.05
2023-05-05T00:19:19.488Z,6.68
2023-05-05T00:21:46.480Z,6.82
2023-05-05T00:24:13.471Z,7.63
2023-05-05T00:26:40.587Z,6.45
2023-05-05T00:29:07.912Z,6.97
2023-05-05T00:31:35.095Z,7.45
2023-05-05T00:34:02.122Z,7.22
2023-05-05T00:36:29.070Z,7.78
2023-05-05T00:38:56.032Z,7.55
2023-05-05T00:41:23.066Z,8.30
2023-05-05T00:43:50.010Z,7.88
2023-05-05T00:46:26.830Z,8.35
2023-05-05T00:48:55.065Z,7.82
2023-05-05T00:51:22.876Z,8.25
2023-05-05T00:53:50.617Z,8.10
2023-05-05T00:56:21.977Z,8.23
2023-05-05T00:58:49.495Z,8.20
2023-05-05T01:01:17.957Z,8.50
2023-05-05T01:03:46.944Z,8.63
2023-05-05T01:06:38.802Z,8.48
2023-05-05T01:09:34.465Z,8.48
2023-05-05T01:13:17.469Z,7.93
2023-05-05T01:16:26.889Z,8.15
2023-05-05T01:19:26.598Z,8.30
2023-05-05T01:22:02.282Z,7.95
2023-05-05T01:25:21.368Z,8.10
2023-05-05T01:28:38.403Z,7.53
2023-05-05T01:31:35.154Z,7.88
2023-05-05T01:34:08.922Z,8.20
2023-05-05T01:36:47.521Z,8.30
2023-05-05T01:39:17.462Z,9.40
2023-05-05T01:41:50.959Z,9.48
2023-05-05T01:44:20.143Z,9.80
2023-05-05T01:46:50.456Z,9.50
2023-05-05T01:49:17.971Z,9.30
2023-05-05T01:51:48.956Z,9.00
2023-05-05T01:54:19.509Z,7.93
2023-05-05T01:56:49.214Z,8.68
2023-05-05T01:59:17.892Z,9.52
2023-05-05T02:01:47.624Z,8.73
2023-05-05T02:04:18.917Z,9.50
2023-05-05T02:06:51.612Z,9.30
2023-05-05T02:09:20.650Z,8.90
2023-05-05T02:11:48.476Z,9.45
2023-05-05T02:14:18.483Z,8.50
2023-05-05T02:16:47.100Z,8.82
2023-05-05T02:19:16.132Z,8.50
2023-05-05T02:21:43.261Z,9.63
2023-05-05T02:24:10.705Z,8.93
2023-05-05T02:26:45.983Z,8.15
2023-05-05T02:29:28.554Z,8.73
2023-05-05T02:32:05.568Z,8.32
2023-05-05T02:34:39.891Z,9.20
2023-05-05T02:37:20.311Z,8.43
2023-05-05T02:39:59.193Z,9.07
2023-05-05T02:42:36.520Z,8.90
2023-05-05T02:45:12.606Z,8.95
2023-05-05T02:47:42.965Z,8.70
2023-05-05T02:50:11.819Z,9.20
2023-05-05T02:52:48.671Z,9.27
2023-05-05T02:55:17.726Z,9.60
2023-05-05T02:58:05.285Z,9.90
2023-05-05T03:00:50.777Z,9.00
2023-05-05T03:03:44.424Z,9.47
2023-05-05T03:06:27.516Z,8.97
2023-05-05T03:09:13.212Z,9.40
2023-05-05T03:12:05.577Z,9.43
2023-05-05T03:14:46.228Z,8.97
2023-05-05T03:17:20.476Z,9.43
2023-05-05T03:19:49.364Z,8.67
2023-05-05T03:22:16.885Z,9.50
2023-05-05T03:24:55.809Z,8.77
2023-05-05T03:27:27.493Z,9.37
2023-05-05T03:29:58.069Z,9.00
2023-05-05T03:32:27.147Z,9.23
2023-05-05T03:34:55.639Z,9.27
2023-05-05T03:37:27.605Z,9.47
2023-05-05T03:39:54.792Z,9.67
2023-05-05T03:42:22.584Z,9.47
2023-05-05T03:44:53.387Z,9.27
2023-05-05T03:47:24.570Z,8.97
2023-05-05T03:49:52.535Z,9.13
2023-05-05T03:52:22.790Z,9.03
2023-05-05T03:54:50.035Z,8.43
2023-05-05T03:57:17.062Z,8.50
2023-05-05T03:59:44.330Z,8.40
2023-05-05T04:02:11.527Z,8.23
2023-05-05T04:04:38.645Z,7.80
2023-05-05T04:07:06.159Z,7.80
2023-05-05T04:09:33.632Z,7.80
2023-05-05T04:12:01.541Z,7.80
2023-05-05T04:14:30.115Z,7.20
2023-05-05T04:16:57.995Z,7.63
2023-05-05T04:19:25.031Z,7.30
2023-05-05T04:21:52.181Z,7.70
2023-05-05T04:24:24.917Z,7.37
2023-05-05T04:26:54.206Z,7.43
2023-05-05T04:29:21.904Z,7.27
2023-05-05T04:31:50.018Z,6.67
2023-05-05T04:34:17.239Z,7.30
2023-05-05T04:36:47.238Z,7.33
2023-05-05T04:39:14.500Z,7.83
2023-05-05T04:41:41.645Z,7.23
2023-05-05T04:44:09.922Z,7.60
2023-05-05T04:46:37.011Z,7.57
2023-05-05T04:49:05.785Z,7.57
2023-05-05T04:51:33.950Z,7.33
2023-05-05T04:54:04.364Z,7.33
2023-05-05T04:56:32.539Z,8.03
2023-05-05T04:58:59.657Z,7.93
2023-05-05T05:01:26.994Z,7.33
2023-05-05T05:03:54.234Z,7.63
2023-05-05T05:06:21.303Z,7.53
2023-05-05T05:08:48.444Z,7.30
2023-05-05T05:11:15.520Z,8.13
2023-05-05T05:13:42.975Z,7.17
2023-05-05T05:16:10.511Z,7.53
2023-05-05T05:18:37.692Z,8.20
2023-05-05T05:21:04.878Z,7.10
2023-05-05T05:23:32.000Z,8.23
2023-05-05T05:25:59.455Z,7.80
2023-05-05T05:28:26.903Z,7.17
2023-05-05T05:30:58.407Z,7.83
2023-05-05T05:33:25.927Z,7.43
2023-05-05T05:35:57.623Z,7.93
2023-05-05T05:38:25.960Z,7.43
2023-05-05T05:40:55.892Z,7.20
2023-05-05T05:43:24.339Z,7.50
2023-05-05T05:45:52.068Z,7.77
2023-05-05T05:48:21.449Z,8.13
2023-05-05T05:50:48.604Z,7.67
2023-05-05T05:53:15.651Z,8.03
2023-05-05T05:55:46.119Z,6.97
2023-05-05T05:58:14.517Z,7.10
2023-05-05T06:00:42.097Z,7.27
2023-05-05T06:03:10.850Z,6.97
2023-05-05T06:05:39.624Z,6.90
2023-05-05T06:08:07.047Z,6.30
2023-05-05T06:10:39.864Z,6.68
2023-05-05T06:13:11.375Z,6.40
2023-05-05T06:15:42.593Z,5.68
2023-05-05T06:18:12.045Z,5.95
2023-05-05T06:20:39.235Z,6.15
2023-05-05T06:23:06.930Z,5.68
2023-05-05T06:25:37.696Z,5.60
2023-05-05T06:28:05.796Z,5.60
2023-05-05T06:30:33.702Z,6.15
2023-05-05T06:33:00.847Z,5.15
2023-05-05T06:35:27.912Z,5.45
2023-05-05T06:37:54.970Z,5.57
2023-05-05T06:40:21.965Z,5.43
2023-05-05T06:42:48.952Z,5.22
2023-05-05T06:45:21.858Z,5.90
2023-05-05T06:47:49.351Z,5.85
2023-05-05T06:50:16.673Z,5.78
2023-05-05T06:52:45.277Z,5.57
2023-05-05T06:55:12.398Z,6.05
2023-05-05T06:57:39.514Z,5.60
2023-05-05T07:00:11.284Z,5.75
2023-05-05T07:02:38.958Z,6.07
2023-05-05T07:05:06.676Z,5.68
2023-05-05T07:07:33.881Z,5.75
2023-05-05T07:10:01.156Z,5.28
2023-05-05T07:12:33.721Z,5.53
2023-05-05T07:15:09.311Z,5.43
2023-05-05T07:17:42.861Z,5.18
2023-05-05T07:20:12.124Z,5.65
2023-05-05T07:22:39.457Z,6.03
2023-05-05T07:25:07.586Z,4.80
2023-05-05T07:27:39.183Z,5.28
2023-05-05T07:30:11.259Z,5.45
2023-05-05T07:32:40.623Z,4.93
2023-05-05T07:35:08.324Z,4.70
2023-05-05T07:37:35.752Z,4.47
2023-05-05T07:40:03.909Z,4.25
2023-05-05T07:42:31.173Z,4.32
2023-05-05T07:44:58.365Z,4.88
2023-05-05T07:47:25.566Z,4.70
2023-05-05T07:49:55.292Z,4.32
2023-05-05T07:52:33.205Z,4.85
2023-05-05T07:55:10.536Z,4.88
2023-05-05T07:57:40.378Z,4.63
2023-05-05T08:00:09.355Z,4.60
2023-05-05T08:02:41.371Z,4.80
2023-05-05T08:05:09.212Z,4.20
2023-05-05T08:07:40.914Z,4.25
2023-05-05T08:10:12.158Z,4.55
2023-05-05T08:12:40.178Z,4.57
2023-05-05T08:15:08.253Z,4.35
2023-05-05T08:17:52.095Z,4.22
2023-05-05T08:20:21.276Z,4.18
2023-05-05T08:22:50.366Z,4.53
2023-05-05T08:25:20.452Z,4.03
2023-05-05T08:27:47.479Z,4.30
2023-05-05T08:30:16.611Z,4.28
2023-05-05T08:32:45.676Z,4.22
2023-05-05T08:35:13.135Z,4.10
2023-05-05T08:37:40.489Z,3.53
2023-05-05T08:40:11.768Z,3.60
2023-05-05T08:42:39.596Z,3.70
2023-05-05T08:45:11.716Z,3.70
2023-05-05T08:47:39.696Z,3.75
2023-05-05T08:50:11.204Z,3.90
2023-05-05T08:52:45.353Z,3.30
2023-05-05T08:55:18.092Z,3.40
2023-05-05T08:57:52.473Z,3.45
2023-05-05T09:00:21.578Z,2.83
2023-05-05T09:02:49.793Z,3.50
2023-05-05T09:05:19.523Z,2.75
2023-05-05T09:07:47.308Z,2.78
2023-05-05T09:10:14.757Z,2.72
2023-05-05T09:12:42.496Z,1.90
2023-05-05T09:15:12.238Z,1.90
2023-05-05T09:17:40.678Z,1.90
2023-05-05T09:20:09.869Z,2.60
2023-05-05T09:22:45.530Z,2.80
2023-05-05T09:25:16.264Z,2.85
2023-05-05T09:27:47.048Z,2.60
2023-05-05T09:30:32.154Z,3.13
2023-05-05T09:33:00.561Z,2.63
2023-05-05T09:35:27.891Z,2.97
2023-05-05T09:37:55.449Z,3.03
2023-05-05T09:40:22.783Z,2.83
2023-05-05T09:43:02.868Z,3.13
2023-05-05T09:45:30.122Z,2.80
2023-05-05T09:48:00.362Z,2.85
2023-05-05T09:50:31.171Z,2.90
2023-05-05T09:53:02.221Z,3.15
2023-05-05T09:55:33.702Z,3.47
2023-05-05T09:58:23.595Z,3.50
2023-05-05T10:00:54.194Z,3.10
2023-05-05T10:03:21.899Z,3.00
2023-05-05T10:05:52.012Z,3.38
2023-05-05T10:08:23.025Z,3.35
2023-05-05T10:10:57.338Z,3.47
2023-05-05T10:13:25.356Z,3.83
2023-05-05T10:15:58.954Z,3.40
2023-05-05T10:18:28.474Z,3.55
2023-05-05T10:21:04.194Z,3.58
2023-05-05T10:23:54.337Z,3.70
2023-05-05T10:26:26.184Z,3.67
2023-05-05T10:29:04.077Z,3.58
2023-05-05T10:31:49.465Z,3.70
2023-05-05T10:34:42.335Z,3.38
2023-05-05T10:37:11.585Z,3.22
2023-05-05T10:39:39.527Z,2.67
2023-05-05T10:42:08.730Z,2.50
2023-05-05T10:44:39.123Z,2.83
2023-05-05T10:47:07.955Z,2.42
2023-05-05T10:49:56.372Z,3.55
2023-05-05T10:53:03.208Z,3.70
2023-05-05T10:56:04.717Z,3.42
2023-05-05T10:58:51.036Z,3.33
2023-05-05T11:01:34.136Z,3.33
2023-05-05T11:04:22.745Z,3.17
2023-05-05T11:07:09.822Z,3.67
2023-05-05T11:10:04.238Z,3.45
2023-05-05T11:12:45.899Z,4.25
2023-05-05T11:15:28.240Z,3.75
2023-05-05T11:18:07.515Z,3.08
2023-05-05T11:20:35.970Z,2.78
2023-05-05T11:23:03.232Z,3.00
2023-05-05T11:25:36.738Z,3.22
2023-05-05T11:28:11.123Z,2.55
2023-05-05T11:31:02.212Z,2.83
2023-05-05T11:33:38.205Z,2.75
2023-05-05T11:36:08.009Z,2.83
2023-05-05T11:39:20.098Z,2.90
2023-05-05T11:42:26.111Z,2.67
2023-05-05T11:44:55.587Z,2.88
2023-05-05T11:47:27.960Z,2.75
2023-05-05T11:49:57.660Z,2.25
2023-05-05T11:52:26.396Z,1.70
2023-05-05T11:54:54.029Z,1.75
2023-05-05T11:57:29.427Z,1.48
2023-05-05T12:00:04.350Z,1.40
2023-05-05T12:02:34.528Z,1.38
2023-05-05T12:05:03.699Z,1.70
2023-05-05T12:07:33.445Z,1.48
2023-05-05T12:10:01.172Z,1.77
2023-05-05T12:12:40.000Z,2.30
2023-05-05T12:15:10.995Z,1.95
2023-05-05T12:17:46.037Z,2.08
2023-05-05T12:20:13.768Z,2.20
2023-05-05T12:22:41.595Z,1.90
2023-05-05T12:25:09.682Z,1.70
2023-05-05T12:27:37.092Z,1.90
2023-05-05T12:30:17.498Z,1.75
2023-05-05T12:33:06.961Z,2.03
2023-05-05T12:35:34.846Z,1.85
2023-05-05T12:38:02.048Z,2.25
2023-05-05T12:40:52.943Z,2.20
2023-05-05T12:43:34.161Z,1.80
2023-05-05T12:46:06.501Z,2.28
2023-05-05T12:48:37.976Z,2.00
2023-05-05T12:51:23.154Z,1.80
2023-05-05T12:54:12.652Z,2.40
2023-05-05T12:56:45.703Z,2.05
2023-05-05T12:59:30.004Z,2.00
2023-05-05T13:02:02.635Z,1.75
2023-05-05T13:04:30.189Z,1.85
2023-05-05T13:07:18.058Z,2.00
2023-05-05T13:09:50.171Z,2.20
2023-05-05T13:12:21.761Z,2.15
2023-05-05T13:14:53.777Z,2.20
2023-05-05T13:17:20.903Z,2.00
2023-05-05T13:19:47.947Z,2.03
2023-05-05T13:22:17.789Z,1.90
2023-05-05T13:24:52.469Z,2.28
2023-05-05T13:27:20.810Z,2.30
2023-05-05T13:29:48.771Z,2.40
2023-05-05T13:32:17.035Z,3.00
2023-05-05T13:34:44.424Z,2.55
2023-05-05T13:37:11.490Z,2.55
2023-05-05T13:39:38.450Z,2.45
2023-05-05T13:42:05.479Z,2.33
2023-05-05T13:44:32.673Z,2.28
2023-05-05T13:46:59.684Z,2.50
2023-05-05T13:49:26.998Z,1.98
2023-05-05T13:51:55.248Z,2.58
2023-05-05T13:54:22.424Z,2.08
2023-05-05T13:56:49.441Z,2.75
2023-05-05T13:59:16.933Z,2.50
2023-05-05T14:01:45.257Z,2.80
2023-05-05T14:04:12.431Z,2.33
2023-05-05T14:06:39.786Z,2.80
2023-05-05T14:09:08.309Z,2.40
2023-05-05T14:11:36.130Z,1.98
2023-05-05T14:14:03.191Z,1.98
2023-05-05T14:16:30.261Z,2.28
2023-05-05T14:19:00.727Z,1.63
2023-05-05T14:21:27.797Z,1.50
2023-05-05T14:23:54.914Z,1.48
2023-05-05T14:26:25.939Z,1.58
2023-05-05T14:28:53.066Z,1.40
2023-05-05T14:31:20.203Z,1.50
2023-05-05T14:33:47.468Z,1.50
2023-05-05T14:36:18.175Z,1.67
2023-05-05T14:38:48.360Z,1.30
2023-05-05T14:41:16.123Z,1.40
2023-05-05T14:43:45.761Z,1.70
2023-05-05T14:46:12.873Z,1.63
2023-05-05T14:48:40.998Z,1.63
2023-05-05T14:51:11.428Z,1.77
2023-05-05T14:53:38.666Z,1.70
2023-05-05T14:56:08.140Z,1.30
2023-05-05T14:58:37.958Z,1.60
2023-05-05T15:01:05.806Z,1.60
2023-05-05T15:03:34.456Z,1.92
2023-05-05T15:06:01.882Z,1.98
2023-05-05T15:08:36.612Z,1.63
2023-05-05T15:11:07.694Z,1.50
2023-05-05T15:13:35.862Z,1.23
2023-05-05T15:16:03.095Z,1.35
2023-05-05T15:18:30.246Z,0.90
2023-05-05T15:20:58.583Z,0.90
2023-05-05T15:23:25.941Z,0.95
2023-05-05T15:25:53.523Z,1.00
2023-05-05T15:28:20.750Z,0.80
2023-05-05T15:30:47.978Z,0.90
2023-05-05T15:33:17.464Z,1.00
2023-05-05T15:35:48.126Z,0.88
2023-05-05T15:38:17.971Z,1.23
2023-05-05T15:40:59.966Z,1.10
2023-05-05T15:43:33.979Z,1.02
2023-05-05T15:46:01.175Z,1.17
2023-05-05T15:48:31.360Z,1.20
2023-05-05T15:50:58.504Z,1.20
2023-05-05T15:53:26.940Z,1.17
2023-05-05T15:55:54.332Z,1.20
2023-05-05T15:58:24.232Z,1.60
2023-05-05T16:00:51.704Z,1.30
2023-05-05T16:03:19.274Z,1.20
2023-05-05T16:05:47.264Z,1.30
2023-05-05T16:08:18.828Z,1.40
2023-05-05T16:10:49.933Z,1.45
2023-05-05T16:13:18.406Z,1.77
2023-05-05T16:15:47.292Z,1.25
2023-05-05T16:18:15.174Z,1.50
2023-05-05T16:20:46.036Z,1.52
2023-05-05T16:23:16.173Z,1.65
2023-05-05T16:25:45.931Z,1.30
2023-05-05T16:28:13.280Z,1.23
2023-05-05T16:30:42.817Z,1.30
2023-05-05T16:33:12.957Z,1.48
2023-05-05T16:35:40.117Z,1.42
2023-05-05T16:38:07.913Z,1.30
2023-05-05T16:40:37.717Z,1.13
2023-05-05T16:43:04.882Z,1.25
2023-05-05T16:45:32.256Z,1.00
2023-05-05T16:47:59.628Z,1.00
2023-05-05T16:50:26.892Z,1.50
2023-05-05T16:53:02.925Z,0.88
2023-05-05T16:55:30.383Z,0.90
2023-05-05T16:58:04.316Z,1.10
2023-05-05T17:00:31.790Z,0.90
2023-05-05T17:02:58.985Z,1.00
2023-05-05T17:05:27.123Z,0.93
2023-05-05T17:08:00.068Z,1.00
2023-05-05T17:10:27.489Z,1.10
2023-05-05T17:12:54.665Z,1.40
2023-05-05T17:15:22.619Z,1.30
2023-05-05T17:17:54.306Z,1.40
2023-05-05T17:20:21.730Z,1.35
2023-05-05T17:22:48.720Z,1.33
2023-05-05T17:25:16.899Z,1.55
2023-05-05T17:27:46.308Z,1.30
2023-05-05T17:30:19.391Z,1.23
2023-05-05T17:32:47.997Z,1.50
2023-05-05T17:35:17.145Z,1.30
2023-05-05T17:37:47.506Z,1.40
2023-05-05T17:40:17.152Z,1.40
2023-05-05T17:42:45.913Z,1.23
2023-05-05T17:45:16.084Z,1.15
2023-05-05T17:47:45.778Z,1.30
2023-05-05T17:50:12.949Z,0.93
2023-05-05T17:52:48.360Z,1.10
2023-05-05T17:55:15.583Z,1.33
2023-05-05T17:57:42.825Z,1.05
2023-05-05T18:00:12.567Z,1.30
2023-05-05T18:02:40.049Z,1.10
2023-05-05T18:05:08.432Z,1.45
2023-05-05T18:07:35.667Z,1.60
2023-05-05T18:10:02.923Z,1.67
2023-05-05T18:12:31.016Z,1.50
2023-05-05T18:14:58.714Z,1.70
2023-05-05T18:17:26.304Z,1.70
2023-05-05T18:19:53.645Z,1.42
2023-05-05T18:22:21.805Z,1.80
2023-05-05T18:24:49.073Z,1.75
2023-05-05T18:27:16.290Z,1.63
2023-05-05T18:29:50.807Z,1.63
2023-05-05T18:32:18.120Z,1.35
2023-05-05T18:34:51.543Z,1.45
2023-05-05T18:37:18.983Z,1.63
2023-05-05T18:39:49.905Z,1.55
2023-05-05T18:42:27.486Z,2.20
2023-05-05T18:44:54.887Z,1.70
2023-05-05T18:47:22.677Z,1.80
2023-05-05T18:49:51.828Z,2.05
2023-05-05T18:52:21.947Z,1.77
2023-05-05T18:54:49.321Z,1.67
2023-05-05T18:57:20.538Z,1.95
2023-05-05T18:59:47.731Z,1.80
2023-05-05T19:02:18.172Z,2.03
2023-05-05T19:04:46.803Z,1.88
2023-05-05T19:07:21.137Z,2.10
2023-05-05T19:09:59.177Z,2.00
2023-05-05T19:12:27.612Z,2.35
2023-05-05T19:14:57.587Z,2.40
2023-05-05T19:17:24.968Z,2.20
2023-05-05T19:19:52.157Z,2.30
2023-05-05T19:22:23.084Z,2.20
2023-05-05T19:24:50.265Z,2.22
2023-05-05T19:27:17.528Z,2.43
2023-05-05T19:29:49.594Z,2.10
2023-05-05T19:32:16.952Z,2.22
2023-05-05T19:34:46.106Z,2.33
2023-05-05T19:37:13.462Z,2.60
2023-05-05T19:39:45.954Z,2.60
2023-05-05T19:42:15.092Z,2.47
2023-05-05T19:44:44.386Z,3.03
2023-05-05T19:47:14.684Z,2.63
2023-05-05T19:49:50.658Z,3.10
2023-05-05T19:52:18.058Z,2.77
2023-05-05T19:54:46.958Z,3.07
2023-05-05T19:57:15.007Z,3.53
2023-05-05T19:59:50.135Z,3.27
2023-05-05T20:02:17.628Z,3.47
2023-05-05T20:04:48.172Z,3.70
2023-05-05T20:07:18.188Z,3.50
2023-05-05T20:09:52.739Z,3.37
2023-05-05T20:12:28.022Z,2.93
2023-05-05T20:15:02.197Z,3.20
2023-05-05T20:17:39.550Z,3.50
2023-05-05T20:20:10.479Z,3.83
2023-05-05T20:22:41.617Z,3.60
2023-05-05T20:25:19.230Z,3.57
2023-05-05T20:27:51.455Z,3.70
2023-05-05T20:30:21.388Z,3.50
2023-05-05T20:32:53.810Z,3.33
2023-05-05T20:35:26.716Z,3.47
2023-05-05T20:37:59.024Z,3.60
2023-05-05T20:40:33.826Z,3.50
2023-05-05T20:43:01.531Z,3.70
2023-05-05T20:45:32.107Z,3.90
2023-05-05T20:48:03.214Z,3.40
2023-05-05T20:50:33.518Z,3.80
2023-05-05T20:53:01.031Z,3.27
2023-05-05T20:55:30.098Z,4.10
2023-05-05T20:58:03.670Z,3.83
2023-05-05T21:00:49.571Z,4.30
2023-05-05T21:03:21.084Z,3.93
2023-05-05T21:05:50.087Z,4.33
2023-05-05T21:08:33.066Z,4.20
2023-05-05T21:11:01.857Z,3.90
2023-05-05T21:13:31.188Z,4.70
2023-05-05T21:16:02.233Z,4.90
2023-05-05T21:18:40.205Z,4.23
2023-05-05T21:21:41.003Z,4.30
2023-05-05T21:24:14.917Z,4.70
2023-05-05T21:26:48.321Z,4.70
2023-05-05T21:29:15.597Z,4.20
2023-05-05T21:31:45.999Z,4.53
2023-05-05T21:34:13.136Z,4.63
2023-05-05T21:36:40.465Z,4.90
2023-05-05T21:39:15.308Z,4.87
2023-05-05T21:41:50.465Z,4.63
2023-05-05T21:44:17.748Z,4.60
2023-05-05T21:46:47.750Z,4.63
2023-05-05T21:49:16.755Z,4.67
2023-05-05T21:51:47.531Z,4.90
2023-05-05T21:54:14.744Z,5.17
2023-05-05T21:56:41.829Z,5.10
2023-05-05T21:59:08.944Z,5.10
2023-05-05T22:01:39.121Z,4.73
2023-05-05T22:04:07.511Z,4.13
2023-05-05T22:06:34.931Z,4.57
2023-05-05T22:09:02.168Z,4.50
2023-05-05T22:11:29.404Z,5.40
2023-05-05T22:13:59.932Z,5.33
2023-05-05T22:16:27.372Z,5.27
2023-05-05T22:18:57.911Z,5.33
2023-05-05T22:21:27.620Z,5.60
2023-05-05T22:23:54.737Z,6.00
2023-05-05T22:26:21.748Z,6.03
2023-05-05T22:28:48.786Z,5.33
2023-05-05T22:31:23.220Z,5.93
2023-05-05T22:33:50.528Z,5.77
2023-05-05T22:36:17.619Z,5.97
2023-05-05T22:38:50.638Z,5.90
2023-05-05T22:41:21.339Z,6.03
2023-05-05T22:43:49.382Z,6.17
2023-05-05T22:46:17.200Z,5.87
2023-05-05T22:48:50.155Z,5.87
2023-05-05T22:51:20.449Z,6.30
2023-05-05T22:53:47.903Z,6.43
2023-05-05T22:56:15.155Z,5.80
2023-05-05T22:58:42.346Z,6.90
2023-05-05T23:01:09.958Z,6.77
2023-05-05T23:03:37.453Z,6.57
2023-05-05T23:06:04.687Z,7.00
2023-05-05T23:08:31.695Z,5.93
2023-05-05T23:10:58.889Z,6.90
2023-05-05T23:13:26.501Z,6.50
2023-05-05T23:15:53.767Z,7.10
2023-05-05T23:18:20.961Z,6.57
2023-05-05T23:20:48.111Z,6.63
2023-05-05T23:23:15.069Z,6.67
2023-05-05T23:25:42.227Z,6.73
2023-05-05T23:28:09.972Z,6.67
2023-05-05T23:30:37.127Z,7.10
2023-05-05T23:33:04.608Z,6.63
2023-05-05T23:35:34.982Z,6.80
2023-05-05T23:38:02.102Z,6.37
2023-05-05T23:40:31.432Z,6.40
2023-05-05T23:42:59.669Z,7.43
2023-05-05T23:45:26.760Z,7.30
2023-05-05T23:47:54.062Z,6.77
2023-05-05T23:50:21.355Z,6.73
2023-05-05T23:52:48.404Z,7.17
2023-05-05T23:55:15.356Z,7.00
2023-05-05T23:57:42.720Z,7.43
